Time;durP1;ratioP1;P1;durP2;ratioP2;P2;SDS_P1;SDS_P2;PMS_P1;PMS_P2;Temp;Humidity;BMP_temperature;BMP_pressure;BME280_temperature;BME280_humidity;BME280_pressure;Samples;Min_cycle;Max_cycle;Signal;HPM_P1;HPM_P2
2022/05/23 00:01:21;;;;;;;;;;;;;;;12.05;78.34;98929.91;5053506;28;803;-59
2022/05/23 00:03:48;;;;;;;;;;;;;;;11.98;78.67;98930.09;5053445;28;902;-59
2022/05/23 00:06:17;;;;;;;;;;;;;;;11.94;79.01;98935.72;5053345;28;946;-59
2022/05/23 00:08:44;;;;;;;;;;;;;;;12.09;78.89;98940.91;5053442;28;901;-59
2022/05/23 00:11:11;;;;;;;;;;;;;;;12.30;78.11;98940.38;5053301;28;1957;-59
2022/05/23 00:13:37;;;;;;;;;;;;;;;12.42;77.53;98942.44;5053514;28;869;-59
2022/05/23 00:16:05;;;;;;;;;;;;;;;12.35;77.59;98939.84;5053332;28;807;-59
2022/05/23 00:18:31;;;;;;;;;;;;;;;12.38;77.52;98944.53;5053076;28;930;-59
2022/05/23 00:20:58;;;;;;;;;;;;;;;12.45;77.33;98949.09;5053238;28;882;-59
2022/05/23 00:23:25;;;;;;;;;;;;;;;12.42;77.23;98950.75;5053163;28;798;-59
2022/05/23 00:25:51;;;;;;;;;;;;;;;12.32;77.56;98943.47;5053043;28;907;-59
2022/05/23 00:28:17;;;;;;;;;;;;;;;12.24;77.88;98942.88;5052864;28;1248;-59
2022/05/23 00:30:45;;;;;;;;;;;;;;;12.22;78.02;98956.38;5053012;28;1977;-59
2022/05/23 00:35:57;;;;;;;;;;;;;;;12.23;78.06;98957.97;5053046;28;621;-59
2022/05/23 00:38:24;;;;;;;;;;;;;;;12.19;77.60;98959.25;5052839;28;950;-59
2022/05/23 00:43:13;;;;;;;;;;;;;;;12.02;78.38;98952.94;5053025;28;791;-59
2022/05/23 00:43:42;;;;;;;;;;;;;;;11.95;79.17;98951.13;5052518;28;786;-59
2022/05/23 00:46:10;;;;;;;;;;;;;;;11.94;78.89;98952.34;5052773;28;822;-59
2022/05/23 00:48:37;;;;;;;;;;;;;;;11.87;79.58;98951.72;5052899;28;819;-59
2022/05/23 00:51:09;;;;;;;;;;;;;;;11.80;79.73;98941.59;5052654;28;1957;-59
2022/05/23 00:53:38;;;;;;;;;;;;;;;11.69;80.07;98946.56;5052648;28;903;-59
2022/05/23 00:56:10;;;;;;;;;;;;;;;11.50;80.74;98946.22;5034579;28;1482;-59
2022/05/23 00:58:41;;;;;;;;;;;;;;;11.27;80.96;98947.09;5052807;28;747;-59
2022/05/23 01:01:11;;;;;;;;;;;;;;;10.97;81.88;98945.38;5052319;28;831;-59
2022/05/23 01:03:39;;;;;;;;;;;;;;;10.69;82.54;98958.53;5052318;28;1135;-59
2022/05/23 01:06:07;;;;;;;;;;;;;;;10.47;83.29;98957.38;5052331;28;854;-59
2022/05/23 01:08:35;;;;;;;;;;;;;;;10.35;84.17;98959.53;5052244;28;1016;-59
2022/05/23 01:11:03;;;;;;;;;;;;;;;10.17;84.75;98967.31;5052190;28;1914;-59
2022/05/23 01:13:30;;;;;;;;;;;;;;;10.01;85.73;98968.75;5034374;28;874;-59
2022/05/23 01:15:57;;;;;;;;;;;;;;;9.91;86.25;98975.22;5052155;28;866;-59
2022/05/23 01:18:24;;;;;;;;;;;;;;;9.81;86.70;98976.16;5052013;28;799;-59
2022/05/23 01:20:53;;;;;;;;;;;;;;;9.71;87.49;98971.59;5052147;28;874;-59
2022/05/23 01:23:28;;;;;;;;;;;;;;;9.75;88.18;98967.59;5052003;28;802;-59
2022/05/23 01:25:55;;;;;;;;;;;;;;;9.79;88.47;98979.34;5052441;28;1012;-59
2022/05/23 01:28:22;;;;;;;;;;;;;;;9.92;88.70;98976.78;5051725;28;1408;-59
2022/05/23 01:30:48;;;;;;;;;;;;;;;10.11;88.42;98967.00;5034000;28;1981;-59
2022/05/23 01:33:16;;;;;;;;;;;;;;;10.28;87.94;98972.66;5051853;28;861;-59
2022/05/23 01:35:42;;;;;;;;;;;;;;;10.38;87.50;98963.44;5034297;28;783;-59
2022/05/23 01:38:09;;;;;;;;;;;;;;;10.52;87.36;98962.38;5051719;28;882;-59
2022/05/23 01:40:36;;;;;;;;;;;;;;;10.58;87.01;98963.47;5051694;28;910;-59
2022/05/23 01:43:03;;;;;;;;;;;;;;;10.57;86.74;98959.94;5051657;28;918;-59
2022/05/23 01:45:33;;;;;;;;;;;;;;;10.45;86.95;98959.75;5051572;28;958;-59
2022/05/23 01:48:00;;;;;;;;;;;;;;;10.39;86.99;98974.06;5051740;28;779;-59
2022/05/23 01:50:27;;;;;;;;;;;;;;;10.23;87.08;98982.97;5051609;28;917;-59
2022/05/23 01:52:54;;;;;;;;;;;;;;;10.10;88.30;98990.31;5051645;28;1886;-58
2022/05/23 01:55:20;;;;;;;;;;;;;;;10.07;88.30;98988.41;5051827;28;806;-59
2022/05/23 01:57:46;;;;;;;;;;;;;;;9.95;88.08;98991.72;5052347;28;747;-59
2022/05/23 02:02:59;;;;;;;;;;;;;;;9.68;89.41;98977.94;5051838;28;601;-59
2022/05/23 02:05:27;;;;;;;;;;;;;;;9.71;89.43;98977.13;5051458;28;810;-59
2022/05/23 02:07:54;;;;;;;;;;;;;;;9.73;89.57;98975.50;5033579;28;1319;-59
2022/05/23 02:10:22;;;;;;;;;;;;;;;9.78;89.65;98971.47;5051167;28;898;-59
2022/05/23 02:12:48;;;;;;;;;;;;;;;9.85;89.60;98963.09;5050937;28;1933;-59
2022/05/23 02:15:16;;;;;;;;;;;;;;;9.89;89.78;98955.53;5051451;28;794;-59
2022/05/23 02:17:43;;;;;;;;;;;;;;;9.87;89.40;98957.16;5051549;28;867;-59
2022/05/23 02:20:10;;;;;;;;;;;;;;;9.77;89.93;98959.66;5051349;28;893;-59
2022/05/23 02:22:37;;;;;;;;;;;;;;;9.82;89.59;98958.41;5051540;28;845;-59
2022/05/23 02:25:05;;;;;;;;;;;;;;;9.77;89.90;98959.66;5052013;28;806;-59
2022/05/23 02:27:32;;;;;;;;;;;;;;;9.69;89.63;98962.94;5033300;28;1489;-60
2022/05/23 02:30:00;;;;;;;;;;;;;;;9.48;89.26;98964.81;5051582;28;869;-59
2022/05/23 02:32:27;;;;;;;;;;;;;;;9.31;90.05;98960.31;5051547;28;1977;-59
2022/05/23 02:34:54;;;;;;;;;;;;;;;9.25;90.69;98970.25;5051346;28;807;-59
2022/05/23 02:37:21;;;;;;;;;;;;;;;9.38;90.62;98961.00;5033886;28;823;-59
2022/05/23 02:39:48;;;;;;;;;;;;;;;9.46;90.73;98958.94;5051315;28;811;-59
2022/05/23 02:42:15;;;;;;;;;;;;;;;9.43;90.69;98964.47;5051159;28;911;-59
2022/05/23 02:44:42;;;;;;;;;;;;;;;9.34;90.77;98965.00;5051315;28;859;-60
2022/05/23 02:47:08;;;;;;;;;;;;;;;9.34;91.35;98965.00;5051218;28;1059;-60
2022/05/23 02:49:34;;;;;;;;;;;;;;;9.34;91.30;98973.28;5051466;28;783;-60
2022/05/23 02:52:01;;;;;;;;;;;;;;;9.45;91.45;98970.38;5051612;28;1886;-59
2022/05/23 02:54:27;;;;;;;;;;;;;;;9.58;91.72;98979.63;5051278;28;827;-59
2022/05/23 02:56:54;;;;;;;;;;;;;;;9.75;91.63;98973.09;5051233;28;854;-60
2022/05/23 02:59:22;;;;;;;;;;;;;;;9.84;91.32;98978.09;5050920;28;825;-59
2022/05/23 03:04:33;;;;;;;;;;;;;;;10.78;89.16;98971.81;5050919;28;684;-60
2022/05/23 03:07:00;;;;;;;;;;;;;;;11.30;85.97;98967.59;5050796;28;909;-62
2022/05/23 03:09:30;;;;;;;;;;;;;;;12.00;83.28;98964.44;5050884;28;842;-61
2022/05/23 03:11:57;;;;;;;;;;;;;;;12.56;80.41;98973.75;5050686;28;1970;-60
2022/05/23 03:14:25;;;;;;;;;;;;;;;12.75;79.04;98964.53;5050707;28;827;-62
2022/05/23 03:16:52;;;;;;;;;;;;;;;13.04;77.08;98974.84;5051614;28;845;-60
2022/05/23 03:19:18;;;;;;;;;;;;;;;13.33;74.74;98969.25;5050875;28;1253;-59
2022/05/23 03:27:15;;;;;;;;;;;;;;;13.83;71.68;98976.09;5054342;28;1199;-59
2022/05/23 03:29:42;;;;;;;;;;;;;;;13.99;70.44;98971.63;5054225;28;818;-59
2022/05/23 03:32:09;;;;;;;;;;;;;;;14.08;69.98;98972.53;5054010;28;1971;-59
2022/05/23 03:34:36;;;;;;;;;;;;;;;14.22;69.33;98971.25;5054200;28;848;-60
2022/05/23 03:37:03;;;;;;;;;;;;;;;14.35;68.49;98981.59;5036115;28;1395;-58
2022/05/23 03:39:30;;;;;;;;;;;;;;;14.32;68.42;98986.03;5054042;28;873;-59
2022/05/23 03:41:57;;;;;;;;;;;;;;;14.26;69.37;98979.50;5053975;28;854;-59
2022/05/23 03:44:23;;;;;;;;;;;;;;;14.34;69.57;98977.22;5053917;28;826;-59
2022/05/23 03:46:50;;;;;;;;;;;;;;;14.47;69.58;98973.22;5053719;28;933;-59
2022/05/23 03:49:16;;;;;;;;;;;;;;;14.81;68.94;98973.69;5053869;28;873;-59
2022/05/23 03:51:43;;;;;;;;;;;;;;;15.32;67.53;98976.97;5053701;28;1885;-59
2022/05/23 03:54:09;;;;;;;;;;;;;;;15.85;65.96;98967.84;5053693;28;834;-59
2022/05/23 03:56:36;;;;;;;;;;;;;;;16.16;65.08;98953.03;5053661;28;906;-60
2022/05/23 03:59:04;;;;;;;;;;;;;;;16.42;63.85;98958.34;5053644;28;818;-60
2022/05/23 04:01:31;;;;;;;;;;;;;;;16.61;63.66;98959.16;5053645;28;869;-60
2022/05/23 04:03:59;;;;;;;;;;;;;;;16.76;63.47;98968.44;5053603;28;850;-59
2022/05/23 04:06:26;;;;;;;;;;;;;;;16.87;63.28;98968.78;5053565;28;799;-60
2022/05/23 04:08:52;;;;;;;;;;;;;;;16.87;62.87;98962.44;5053453;28;863;-59
2022/05/23 04:11:20;;;;;;;;;;;;;;;16.73;63.33;98969.38;5053452;28;1967;-59
2022/05/23 04:13:47;;;;;;;;;;;;;;;16.67;63.77;98972.00;5053541;28;818;-59
2022/05/23 04:16:14;;;;;;;;;;;;;;;16.74;64.01;98984.88;5053230;28;931;-59
2022/05/23 04:18:40;;;;;;;;;;;;;;;16.74;64.22;98985.66;5053282;28;862;-59
2022/05/23 04:21:07;;;;;;;;;;;;;;;16.85;63.86;98984.44;5053141;28;863;-59
2022/05/23 04:23:35;;;;;;;;;;;;;;;16.98;63.62;98978.69;5053227;28;809;-58
2022/05/23 04:26:06;;;;;;;;;;;;;;;17.06;62.28;98980.72;5052988;28;993;-58
2022/05/23 04:28:33;;;;;;;;;;;;;;;17.13;62.38;98987.97;5053006;28;1416;-58
2022/05/23 04:31:00;;;;;;;;;;;;;;;17.26;62.10;98996.97;5053336;28;1910;-59
2022/05/23 04:36:12;;;;;;;;;;;;;;;17.67;60.03;98997.50;5052966;28;586;-59
2022/05/23 04:38:39;;;;;;;;;;;;;;;17.73;59.21;98987.25;5035014;28;2365;-61
2022/05/23 04:41:08;;;;;;;;;;;;;;;17.65;59.15;98990.84;5052864;28;842;-59
2022/05/23 04:43:35;;;;;;;;;;;;;;;17.42;59.31;98981.13;5034969;28;1296;-60
2022/05/23 04:46:01;;;;;;;;;;;;;;;17.22;59.49;98984.41;5052759;28;834;-60
2022/05/23 04:51:14;;;;;;;;;;;;;;;16.80;61.33;98987.84;5052572;28;1949;-60
2022/05/23 04:53:41;;;;;;;;;;;;;;;16.81;61.00;98981.03;5052621;28;905;-61
2022/05/23 04:56:08;;;;;;;;;;;;;;;17.02;60.72;98990.47;5052485;28;892;-61
2022/05/23 05:10:35;;;;;;;;;;;;;;;17.19;60.25;99002.88;5052642;28;636;-61
2022/05/23 05:13:02;;;;;;;;;;;;;;;17.05;60.54;98993.13;5051992;28;1898;-60
2022/05/23 05:15:29;;;;;;;;;;;;;;;16.94;60.60;99001.97;5052216;28;886;-59
2022/05/23 05:17:56;;;;;;;;;;;;;;;16.87;60.12;99002.25;5052155;28;889;-59
2022/05/23 05:20:24;;;;;;;;;;;;;;;16.81;59.39;99006.16;5052297;28;836;-59
2022/05/23 05:22:51;;;;;;;;;;;;;;;16.79;58.83;99008.59;5052120;28;909;-61
2022/05/23 05:25:19;;;;;;;;;;;;;;;16.79;58.91;99014.16;5052009;28;774;-58
2022/05/23 05:27:45;;;;;;;;;;;;;;;16.82;59.39;99016.09;5052248;28;1099;-60
2022/05/23 05:30:19;;;;;;;;;;;;;;;16.85;59.49;99021.50;5034082;28;2171;-60
2022/05/23 05:32:49;;;;;;;;;;;;;;;16.98;59.30;99032.50;5051748;28;1961;-60
2022/05/23 05:35:22;;;;;;;;;;;;;;;17.29;58.45;99026.00;5052091;28;856;-59
2022/05/23 05:37:54;;;;;;;;;;;;;;;17.67;57.62;99024.69;5033959;28;1346;-60
2022/05/23 05:40:22;;;;;;;;;;;;;;;17.99;57.22;99016.81;5051812;28;826;-59
2022/05/23 05:42:51;;;;;;;;;;;;;;;18.44;56.18;99012.25;5051961;28;854;-60
2022/05/23 05:45:22;;;;;;;;;;;;;;;18.48;56.26;99019.22;5051838;28;866;-60
2022/05/23 05:47:50;;;;;;;;;;;;;;;18.87;54.89;99015.69;5051600;28;937;-60
2022/05/23 05:50:27;;;;;;;;;;;;;;;19.12;54.72;99020.78;5051535;28;911;-60
2022/05/23 05:52:55;;;;;;;;;;;;;;;20.11;52.73;99015.84;5051594;28;1890;-60
2022/05/23 05:55:23;;;;;;;;;;;;;;;21.72;47.74;99016.75;5051517;28;835;-61
2022/05/23 06:12:47;;;;;;;;;;;;;;;22.60;41.88;99005.06;5051251;28;1955;-59
2022/05/23 06:15:14;;;;;;;;;;;;;;;23.10;41.94;99007.31;5051245;28;942;-63
2022/05/23 06:17:44;;;;;;;;;;;;;;;23.57;39.91;99007.66;5051355;28;842;-60
2022/05/23 06:20:12;;;;;;;;;;;;;;;23.55;41.19;99009.44;5051297;28;874;-61
2022/05/23 06:22:38;;;;;;;;;;;;;;;23.90;40.33;99005.34;5051566;28;847;-60
2022/05/23 06:25:07;;;;;;;;;;;;;;;24.31;39.32;99002.75;5051223;28;839;-58
2022/05/23 06:27:34;;;;;;;;;;;;;;;24.14;40.44;99005.59;5050934;28;1561;-60
2022/05/23 06:30:00;;;;;;;;;;;;;;;24.35;40.13;99008.13;5051264;28;819;-61
2022/05/23 06:32:27;;;;;;;;;;;;;;;23.19;40.72;99011.94;5051112;28;1914;-58
2022/05/23 06:34:54;;;;;;;;;;;;;;;22.81;41.92;99008.50;5051267;28;839;-60
2022/05/23 06:37:21;;;;;;;;;;;;;;;23.50;41.19;99008.16;5051414;28;858;-59
2022/05/23 06:39:47;;;;;;;;;;;;;;;24.16;39.57;99019.97;5051095;28;890;-59
2022/05/23 06:42:15;;;;;;;;;;;;;;;24.16;39.46;99008.69;5050995;28;857;-60
2022/05/23 06:44:41;;;;;;;;;;;;;;;23.80;40.25;99005.63;5050996;28;922;-60
2022/05/23 06:47:10;;;;;;;;;;;;;;;23.70;40.38;99006.38;5051060;28;851;-60
2022/05/23 06:49:40;;;;;;;;;;;;;;;23.68;39.76;99009.69;5051108;28;807;-60
2022/05/23 06:52:07;;;;;;;;;;;;;;;23.77;39.60;99009.50;5051768;28;1910;-59
2022/05/23 06:54:34;;;;;;;;;;;;;;;24.24;39.64;98997.63;5051083;28;815;-59
2022/05/23 06:57:01;;;;;;;;;;;;;;;24.31;38.66;99007.63;5051961;28;751;-59
2022/05/23 06:59:28;;;;;;;;;;;;;;;24.40;39.59;99010.94;5055437;28;841;-59
2022/05/23 07:01:56;;;;;;;;;;;;;;;24.86;37.78;99005.94;5055402;28;751;-59
2022/05/23 07:04:23;;;;;;;;;;;;;;;24.81;38.11;99003.88;5054986;28;915;-60
2022/05/23 07:12:20;;;;;;;;;;;;;;;25.94;36.15;99008.84;5054401;28;1935;-60
2022/05/23 07:14:47;;;;;;;;;;;;;;;26.38;36.36;99010.47;5054493;28;847;-60
2022/05/23 07:17:14;;;;;;;;;;;;;;;27.02;34.35;99006.38;5054724;28;901;-60
2022/05/23 07:19:41;;;;;;;;;;;;;;;26.95;35.02;99013.44;5054545;28;850;-60
2022/05/23 07:22:08;;;;;;;;;;;;;;;27.77;35.01;99002.69;5054279;28;983;-58
2022/05/23 07:27:37;;;;;;;;;;;;;;;27.21;33.94;99006.38;5054347;28;1357;-59
2022/05/23 07:30:04;;;;;;;;;;;;;;;26.98;33.69;99012.34;5054462;28;869;-61
2022/05/23 07:32:30;;;;;;;;;;;;;;;26.98;34.56;99017.25;5054100;28;1910;-59
2022/05/23 07:34:57;;;;;;;;;;;;;;;26.38;34.67;99016.13;5054429;28;882;-60
2022/05/23 07:37:24;;;;;;;;;;;;;;;24.54;37.37;99026.09;5054081;28;819;-60
2022/05/23 07:39:51;;;;;;;;;;;;;;;23.39;40.36;99027.88;5053946;28;882;-60
2022/05/23 07:42:19;;;;;;;;;;;;;;;23.27;41.48;99021.44;5054145;28;815;-60
2022/05/23 07:44:45;;;;;;;;;;;;;;;23.58;41.46;99023.31;5053944;28;849;-63
2022/05/23 07:47:11;;;;;;;;;;;;;;;24.94;39.78;99023.09;5054195;28;806;-59
2022/05/23 07:49:37;;;;;;;;;;;;;;;26.08;37.80;99025.44;5054149;28;845;-59
2022/05/23 07:52:04;;;;;;;;;;;;;;;27.00;36.77;99021.09;5053695;28;1870;-60
2022/05/23 08:02:46;;;;;;;;;;;;;;;28.13;32.95;99013.72;5038863;28;680;-59
2022/05/23 08:05:12;;;;;;;;;;;;;;;27.32;34.38;99020.41;5053510;28;913;-60
2022/05/23 08:07:39;;;;;;;;;;;;;;;27.07;35.09;99019.72;5053475;28;922;-61
2022/05/23 08:10:06;;;;;;;;;;;;;;;27.18;35.50;99013.13;5052069;28;839;-60
2022/05/23 08:12:33;;;;;;;;;;;;;;;27.89;35.95;99021.09;5053251;28;1910;-59
2022/05/23 08:15:00;;;;;;;;;;;;;;;26.62;34.91;99025.94;5053310;28;843;-61
2022/05/23 08:17:27;;;;;;;;;;;;;;;26.25;36.36;99019.59;5053366;28;834;-60
2022/05/23 08:19:54;;;;;;;;;;;;;;;25.25;38.39;99028.34;5035424;28;1482;-60
2022/05/23 08:22:22;;;;;;;;;;;;;;;24.24;41.72;99014.56;5053231;28;815;-59
2022/05/23 08:24:49;;;;;;;;;;;;;;;24.10;41.25;99022.03;5053206;28;882;-60
2022/05/23 08:27:16;;;;;;;;;;;;;;;23.95;41.98;99013.84;5053106;28;1176;-62
2022/05/23 08:29:43;;;;;;;;;;;;;;;23.44;43.06;99016.59;5053096;28;811;-61
2022/05/23 08:32:13;;;;;;;;;;;;;;;23.72;43.49;99017.91;5052963;28;1906;-59
2022/05/23 08:34:39;;;;;;;;;;;;;;;24.88;41.05;99014.66;5053522;28;846;-61
2022/05/23 08:37:06;;;;;;;;;;;;;;;24.40;41.90;99025.03;5052836;28;938;-59
2022/05/23 08:39:34;;;;;;;;;;;;;;;24.54;42.00;99026.09;5035211;28;1176;-60
2022/05/23 08:42:16;;;;;;;;;;;;;;;25.57;39.63;99039.22;5053417;28;842;-60
2022/05/23 08:44:45;;;;;;;;;;;;;;;25.62;37.67;99029.91;5052826;28;791;-60
2022/05/23 08:47:32;;;;;;;;;;;;;;;25.92;38.26;99026.34;5052741;28;874;-59
2022/05/23 08:50:02;;;;;;;;;;;;;;;26.54;36.63;99019.31;5034209;28;1726;-61
2022/05/23 08:52:33;;;;;;;;;;;;;;;26.73;36.75;99031.47;5052622;28;1941;-59
2022/05/23 08:55:19;;;;;;;;;;;;;;;26.67;35.49;99023.06;5052674;28;1031;-62
2022/05/23 08:57:52;;;;;;;;;;;;;;;26.77;37.03;99022.69;5052513;28;878;-59
2022/05/23 09:00:21;;;;;;;;;;;;;;;26.77;35.93;99022.69;5052545;28;807;-62
2022/05/23 09:03:03;;;;;;;;;;;;;;;26.71;36.19;99028.41;5052462;28;862;-60
2022/05/23 09:05:41;;;;;;;;;;;;;;;27.29;35.36;99018.69;5052921;28;878;-60
2022/05/23 09:08:16;;;;;;;;;;;;;;;27.62;35.77;99033.66;5052290;28;855;-60
2022/05/23 09:10:55;;;;;;;;;;;;;;;27.41;33.58;99022.84;5052225;28;823;-61
2022/05/23 09:13:23;;;;;;;;;;;;;;;26.85;34.17;99023.59;5052121;28;839;-61
2022/05/23 09:15:52;;;;;;;;;;;;;;;26.61;36.54;99030.84;5052204;28;798;-60
2022/05/23 09:18:22;;;;;;;;;;;;;;;26.73;33.86;99019.38;5052153;28;811;-60
2022/05/23 09:20:52;;;;;;;;;;;;;;;26.61;36.21;99030.09;5051983;28;818;-61
2022/05/23 09:23:29;;;;;;;;;;;;;;;26.77;34.43;99036.84;5052176;28;969;-61
2022/05/23 09:25:56;;;;;;;;;;;;;;;26.83;34.75;99029.81;5052206;28;855;-60
2022/05/23 09:28:34;;;;;;;;;;;;;;;26.78;35.53;99033.50;5033928;28;2166;-62
2022/05/23 09:31:07;;;;;;;;;;;;;;;26.74;35.94;99040.75;5052399;28;1965;-59
2022/05/23 09:33:41;;;;;;;;;;;;;;;26.26;34.38;99035.28;5052048;28;791;-60
2022/05/23 09:36:32;;;;;;;;;;;;;;;25.63;36.46;99027.84;5051887;28;842;-60
2022/05/23 09:39:03;;;;;;;;;;;;;;;25.64;37.68;99030.13;5043776;28;1853;-60
2022/05/23 09:47:44;;;;;;;;;;;;;;;25.72;38.65;99036.00;5051782;28;811;-60
2022/05/23 09:49:52;;;;;;;;;;;;;;;25.24;38.07;99034.53;5051980;28;664;-60
2022/05/23 09:52:31;;;;;;;;;;;;;;;25.51;38.81;99032.06;5051647;28;1890;-61
2022/05/23 09:55:00;;;;;;;;;;;;;;;25.59;36.93;99030.19;5051522;28;882;-61
2022/05/23 09:57:40;;;;;;;;;;;;;;;25.60;36.26;99031.72;5051566;28;849;-60
2022/05/23 10:28:36;;;;;;;;;;;;;;;26.73;36.41;99020.13;5236641;22;1515;-60
2022/05/23 10:34:26;;;;;;;;;;;;;;;27.39;34.89;99016.94;5055212;28;680;-58
2022/05/23 10:36:54;;;;;;;;;;;;;;;28.49;33.95;99010.50;5055305;28;1756;-57
2022/05/23 10:42:15;;;;;;;;;;;;;;;27.80;33.81;99012.97;5055496;28;633;-58
2022/05/23 10:44:44;;;;;;;;;;;;;;;27.64;32.48;99009.09;5055269;28;863;-59
2022/05/23 10:47:11;;;;;;;;;;;;;;;26.71;33.32;99017.06;5055142;28;884;-60
2022/05/23 10:52:53;;;;;;;;;;;;;;;26.24;36.27;99003.94;5054927;28;1950;-59
2022/05/23 10:55:30;;;;;;;;;;;;;;;27.09;35.69;99000.84;5055002;28;822;-58
2022/05/23 10:58:18;;;;;;;;;;;;;;;27.88;35.34;98994.00;5054929;28;910;-59
2022/05/23 11:00:50;;;;;;;;;;;;;;;27.23;34.29;98992.47;5054635;28;1191;-62
2022/05/23 11:03:46;;;;;;;;;;;;;;;27.94;33.14;99001.69;5054784;28;912;-60
2022/05/23 11:06:20;;;;;;;;;;;;;;;28.69;32.27;98997.69;5045645;28;1597;-59
2022/05/23 11:09:11;;;;;;;;;;;;;;;28.46;31.89;98994.50;5054610;28;846;-59
2022/05/23 11:11:40;;;;;;;;;;;;;;;27.73;33.02;98995.81;5054858;28;1992;-58
2022/05/23 11:14:20;;;;;;;;;;;;;;;27.07;33.95;99000.63;5054541;28;831;-58
2022/05/23 11:16:53;;;;;;;;;;;;;;;26.47;35.66;99004.44;5054413;28;1179;-61
2022/05/23 11:19:38;;;;;;;;;;;;;;;25.60;39.21;99018.34;5054737;28;822;-60
2022/05/23 11:22:32;;;;;;;;;;;;;;;24.20;46.84;99026.13;5054360;28;905;-58
2022/05/23 11:25:02;;;;;;;;;;;;;;;23.22;49.54;99028.63;5052502;28;1777;-57
2022/05/23 11:36:01;;;;;;;;;;;;;;;23.14;51.40;99050.13;5054205;28;672;-57
2022/05/23 11:38:29;;;;;;;;;;;;;;;23.37;50.74;99047.38;5054091;28;887;-56
2022/05/23 11:41:04;;;;;;;;;;;;;;;23.44;50.32;99041.97;5036144;28;835;-57
2022/05/23 11:43:31;;;;;;;;;;;;;;;23.43;50.44;99040.44;5053772;28;869;-57
2022/05/23 11:45:59;;;;;;;;;;;;;;;24.24;49.96;99035.09;5053919;28;613;-57
2022/05/23 11:48:39;;;;;;;;;;;;;;;26.32;46.34;99031.66;5054055;28;898;-57
2022/05/23 11:51:24;;;;;;;;;;;;;;;26.50;44.08;99025.28;5035818;28;1885;-58
2022/05/23 11:53:58;;;;;;;;;;;;;;;24.88;46.23;99025.97;5053724;28;937;-57
2022/05/23 11:56:44;;;;;;;;;;;;;;;24.97;47.40;99030.53;5053993;28;834;-57
2022/05/23 11:59:33;;;;;;;;;;;;;;;24.98;47.40;99035.66;5053658;28;918;-57
2022/05/23 12:02:09;;;;;;;;;;;;;;;25.45;46.93;99041.34;5033768;28;1114;-57
2022/05/23 12:04:45;;;;;;;;;;;;;;;25.10;47.48;99044.09;5053495;28;946;-57
2022/05/23 12:07:30;;;;;;;;;;;;;;;24.36;48.92;99040.72;5053700;28;798;-57
2022/05/23 12:10:15;;;;;;;;;;;;;;;23.32;51.15;99051.72;5053458;28;850;-57
2022/05/23 12:12:47;;;;;;;;;;;;;;;22.51;53.53;99059.56;5053627;28;1890;-58
2022/05/23 12:15:33;;;;;;;;;;;;;;;21.73;55.70;99062.53;5053630;28;814;-57
2022/05/23 12:18:03;;;;;;;;;;;;;;;21.17;57.46;99062.69;5053323;28;842;-57
2022/05/23 12:20:31;;;;;;;;;;;;;;;20.85;58.55;99078.66;5053302;28;839;-57
2022/05/23 12:23:06;;;;;;;;;;;;;;;20.63;59.62;99081.91;5053192;28;907;-57
2022/05/23 12:25:33;;;;;;;;;;;;;;;20.74;60.01;99079.25;5053206;28;1021;-58
2022/05/23 12:28:07;;;;;;;;;;;;;;;21.08;59.00;99071.25;5053234;28;1356;-57
2022/05/23 12:30:39;;;;;;;;;;;;;;;21.64;58.04;99069.09;5053095;28;1029;-58
2022/05/23 12:33:08;;;;;;;;;;;;;;;21.95;57.42;99059.13;5053069;28;1905;-57
2022/05/23 12:35:38;;;;;;;;;;;;;;;22.19;56.77;99059.56;5053226;28;912;-57
2022/05/23 12:38:10;;;;;;;;;;;;;;;23.43;54.48;99054.56;5054078;28;766;-57
2022/05/23 12:40:54;;;;;;;;;;;;;;;23.93;52.50;99043.84;5052892;28;846;-57
2022/05/23 12:43:24;;;;;;;;;;;;;;;24.13;52.51;99054.88;5053033;28;820;-57
2022/05/23 12:46:09;;;;;;;;;;;;;;;25.67;49.97;99053.81;5053079;28;850;-57
2022/05/23 12:48:42;;;;;;;;;;;;;;;26.38;47.00;99061.44;5052769;28;942;-57
2022/05/23 12:51:27;;;;;;;;;;;;;;;27.36;45.30;99052.09;5052753;28;1906;-57
2022/05/23 12:53:56;;;;;;;;;;;;;;;28.30;43.50;99053.19;5052566;28;961;-58
2022/05/23 12:56:26;;;;;;;;;;;;;;;27.96;42.99;99050.19;5051786;28;815;-59
2022/05/23 12:58:53;;;;;;;;;;;;;;;26.94;43.95;99051.56;5052552;28;870;-57
2022/05/23 13:01:25;;;;;;;;;;;;;;;26.79;44.85;99037.84;5052558;28;807;-57
2022/05/23 13:03:53;;;;;;;;;;;;;;;27.27;43.47;99035.47;5052501;28;825;-59
2022/05/23 13:06:38;;;;;;;;;;;;;;;27.70;42.11;99048.75;5052376;28;854;-57
2022/05/23 13:09:09;;;;;;;;;;;;;;;28.37;40.88;99051.78;5052347;28;830;-57
2022/05/23 13:11:41;;;;;;;;;;;;;;;28.87;40.36;99052.91;5052141;28;1999;-57
2022/05/23 13:14:07;;;;;;;;;;;;;;;28.96;40.27;99061.00;5052443;28;946;-58
2022/05/23 13:16:37;;;;;;;;;;;;;;;28.57;40.69;99067.44;5052391;28;886;-57
2022/05/23 13:22:11;;;;;;;;;;;;;;;27.40;42.43;99061.06;5052498;28;617;-56
2022/05/23 13:24:54;;;;;;;;;;;;;;;26.64;43.51;99063.78;5034376;28;871;-57
2022/05/23 13:27:30;;;;;;;;;;;;;;;27.05;42.54;99071.28;5051883;28;1424;-58
2022/05/23 13:30:00;;;;;;;;;;;;;;;25.49;45.20;99079.91;5051879;28;913;-57
2022/05/23 13:32:28;;;;;;;;;;;;;;;24.39;47.96;99090.53;5051941;28;1983;-57
2022/05/23 13:34:56;;;;;;;;;;;;;;;24.44;48.70;99095.41;5051738;28;938;-57
2022/05/23 13:37:26;;;;;;;;;;;;;;;23.78;49.99;99098.47;5051854;28;922;-57
2022/05/23 13:39:53;;;;;;;;;;;;;;;23.46;51.00;99106.34;5051793;28;841;-57
2022/05/23 13:42:24;;;;;;;;;;;;;;;22.72;52.89;99107.28;5051846;28;791;-57
2022/05/23 13:44:51;;;;;;;;;;;;;;;22.09;54.31;99103.22;5051748;28;865;-57
2022/05/23 13:47:25;;;;;;;;;;;;;;;22.02;54.81;99110.09;5051789;28;822;-57
2022/05/23 13:50:00;;;;;;;;;;;;;;;22.06;55.14;99107.03;5051753;28;897;-57
2022/05/23 13:52:32;;;;;;;;;;;;;;;21.74;55.86;99121.09;5051523;28;1890;-57
2022/05/23 13:55:05;;;;;;;;;;;;;;;21.32;57.51;99113.94;5051495;28;882;-58
2022/05/23 13:57:35;;;;;;;;;;;;;;;20.94;59.08;99120.63;5051724;28;942;-57
2022/05/23 14:00:05;;;;;;;;;;;;;;;20.39;60.98;99119.31;5051729;28;933;-57
2022/05/23 14:02:39;;;;;;;;;;;;;;;19.79;63.20;99121.38;5051759;28;922;-57
2022/05/23 14:05:06;;;;;;;;;;;;;;;19.25;66.05;99129.75;5051557;28;807;-57
2022/05/23 14:07:36;;;;;;;;;;;;;;;18.93;66.86;99132.16;5051425;28;893;-57
2022/05/23 14:10:03;;;;;;;;;;;;;;;18.91;67.07;99123.47;5051461;28;822;-57
2022/05/23 14:12:30;;;;;;;;;;;;;;;18.70;68.22;99130.09;5051690;28;1889;-58
2022/05/23 14:15:00;;;;;;;;;;;;;;;18.49;69.38;99137.50;5051664;28;802;-58
2022/05/23 14:17:27;;;;;;;;;;;;;;;17.90;73.38;99135.03;5051308;28;846;-58
2022/05/23 14:19:56;;;;;;;;;;;;;;;17.36;76.54;99140.16;5051271;28;827;-58
2022/05/23 14:22:25;;;;;;;;;;;;;;;17.24;77.99;99139.09;5051593;28;821;-58
2022/05/23 14:24:56;;;;;;;;;;;;;;;17.00;79.63;99152.84;5051183;28;852;-60
2022/05/23 14:27:31;;;;;;;;;;;;;;;16.65;81.29;99160.66;5051104;28;1174;-60
2022/05/23 14:30:10;;;;;;;;;;;;;;;16.28;84.66;99175.22;5051653;28;826;-62
2022/05/23 14:32:36;;;;;;;;;;;;;;;16.23;87.98;99166.66;5051170;28;1973;-64
2022/05/23 14:35:10;;;;;;;;;;;;;;;15.98;90.73;99164.78;5051298;28;850;-66
2022/05/23 14:37:40;;;;;;;;;;;;;;;16.02;92.28;99169.00;5051209;28;870;-70
2022/05/23 14:40:10;;;;;;;;;;;;;;;16.20;93.05;99173.16;5051137;28;850;-70
2022/05/23 14:42:37;;;;;;;;;;;;;;;16.37;94.31;99168.91;5051478;28;830;-68
2022/05/23 14:45:10;;;;;;;;;;;;;;;16.61;95.27;99163.56;5051167;28;937;-70
2022/05/23 14:47:37;;;;;;;;;;;;;;;16.69;95.86;99164.06;5033362;28;1410;-68
2022/05/23 14:50:05;;;;;;;;;;;;;;;16.70;96.74;99155.22;5033139;28;1410;-69
2022/05/23 14:52:37;;;;;;;;;;;;;;;16.86;98.14;99147.88;5050921;28;1947;-69
2022/05/23 14:55:21;;;;;;;;;;;;;;;17.03;98.25;99157.53;5033087;28;946;-69
2022/05/23 15:00:43;;;;;;;;;;;;;;;17.45;98.04;99159.72;5051371;28;664;-69
2022/05/23 15:03:30;;;;;;;;;;;;;;;17.38;96.82;99164.84;5033332;28;1306;-69
2022/05/23 15:05:56;;;;;;;;;;;;;;;17.50;96.96;99164.69;5039918;28;1126;-70
2022/05/23 15:08:23;;;;;;;;;;;;;;;17.49;96.40;99157.53;5050898;28;878;-70
2022/05/23 15:10:54;;;;;;;;;;;;;;;17.50;95.25;99163.94;5050898;28;825;-70
2022/05/23 15:13:22;;;;;;;;;;;;;;;17.47;93.31;99162.81;5050918;28;1941;-71
2022/05/23 15:15:50;;;;;;;;;;;;;;;17.45;93.69;99164.53;5050803;28;861;-72
2022/05/23 15:18:17;;;;;;;;;;;;;;;17.47;94.44;99167.63;5032298;28;1407;-75
2022/05/23 15:20:44;;;;;;;;;;;;;;;17.48;94.56;99163.63;5054328;28;848;-69